PWSweather.com
Personal Weather Stations
Station Observations

SasamonSasamonES 09123

Lat: 42.4180252, Lon: -4.0413679

Elevation: 2706.692

Station Type: PCE-FWS 20

http://www.mipaginapersonal.movistar.es/web3/meteosasamon/index.htm

High Low Average
Temperature 36.9°F2.7°C 28.0°F-2.2°C 32.4°F0.2°C
Dew Point 32.2°F0.1°C 19.1°F-7.2°C 27.2°F-2.7°C
Winds 26.7 mph 43.0 kmh Calm Calm 10.0 mph NE16.1 kmh NE
Wind Gusts 44.1 mph71.0 kmh -- 18.0 mph29.0 kmh
Humidity 86% 69% 81%
Pressure 30.32 in1026.8 mb 30.25 in1024.4 mb -
Precipitation 0.17 in4.3 mm - -
Hour Temp Dew Point Humidity Winds Wind Gusts Pressure Precip Precip Rate Daily Precip Total
12:01 AM 36.9°F2.7°C 32.2°F0.1°C 83% 5.3 mph ENE8.5 kmh ENE 13.6 mph21.9 kmh 30.32 in1026.8 mb 0.01 in0.3 mm 0.60 in/hr15.2 mm/hr 0.17 in4.3 mm
12:12 AM 35.8°F2.1°C 31.1°F-0.5°C 83% 4.2 mph E6.8 kmh E 11.4 mph18.3 kmh 30.32 in1026.8 mb 0.01 in0.3 mm 0.00 in/hr0.0 mm/hr 0.17 in4.3 mm
12:23 AM 36.0°F2.2°C 31.6°F-0.2°C 84% 5.6 mph E9.0 kmh E 12.1 mph19.5 kmh 30.32 in1026.8 mb 0.00 in0.0 mm 0.00 in/hr0.0 mm/hr 0.17 in4.3 mm
12:34 AM 35.8°F2.1°C 31.4°F-0.3°C 84% 4.9 mph E7.9 kmh E 11.4 mph18.3 kmh 30.31 in1026.4 mb 0.00 in0.0 mm 0.00 in/hr0.0 mm/hr 0.17 in4.3 mm
12:45 AM 35.2°F1.8°C 30.9°F-0.6°C 84% 5.5 mph ENE8.9 kmh ENE 11.4 mph18.3 kmh 30.32 in1026.8 mb 0.00 in0.0 mm 0.00 in/hr0.0 mm/hr 0.17 in4.3 mm
12:56 AM 35.1°F1.7°C 30.7°F-0.7°C 84% 5.0 mph ENE8.0 kmh ENE 10.7 mph17.2 kmh 30.32 in1026.8 mb 0.00 in0.0 mm 0.00 in/hr0.0 mm/hr 0.17 in4.3 mm
01:07 AM 34.9°F1.6°C 30.5°F-0.8°C 84% 5.9 mph E9.5 kmh E 14.5 mph23.3 kmh 30.31 in1026.4 mb 0.00 in0.0 mm 0.00 in/hr0.0 mm/hr 0.01 in0.3 mm
01:18 AM 34.3°F1.3°C 30.0°F-1.1°C 84% 5.4 mph E8.7 kmh E 13.0 mph20.9 kmh 30.31 in1026.4 mb 0.00 in0.0 mm 0.00 in/hr0.0 mm/hr 0.01 in0.3 mm
01:29 AM 34.2°F1.2°C 29.8°F-1.2°C 84% 5.0 mph E8.0 kmh E 12.1 mph19.5 kmh 30.32 in1026.8 mb 0.00 in0.0 mm 0.00 in/hr0.0 mm/hr 0.01 in0.3 mm
01:40 AM 34.5°F1.4°C 30.2°F-1.0°C 84% 2.7 mph E4.3 kmh E 8.3 mph13.4 kmh 30.32 in1026.8 mb 0.00 in0.0 mm 0.00 in/hr0.0 mm/hr 0.01 in0.3 mm
01:51 AM 34.7°F1.5°C 30.7°F-0.7°C 85% 2.2 mph E3.5 kmh E 6.9 mph11.1 kmh 30.31 in1026.4 mb 0.00 in0.0 mm 0.00 in/hr0.0 mm/hr 0.01 in0.3 mm
02:02 AM 34.3°F1.3°C 30.3°F-0.9°C 85% 3.3 mph E5.3 kmh E 8.3 mph13.4 kmh 30.30 in1026.1 mb 0.00 in0.0 mm 0.00 in/hr0.0 mm/hr 0.01 in0.3 mm
02:13 AM 33.4°F0.8°C 29.1°F-1.6°C 84% 5.5 mph E8.9 kmh E 12.1 mph19.5 kmh 30.30 in1026.1 mb 0.00 in0.0 mm 0.00 in/hr0.0 mm/hr 0.01 in0.3 mm
02:24 AM 33.6°F0.9°C 29.3°F-1.5°C 84% 5.4 mph SE8.7 kmh SE 12.1 mph19.5 kmh 30.30 in1026.1 mb 0.00 in0.0 mm 0.00 in/hr0.0 mm/hr 0.01 in0.3 mm
02:35 AM 33.3°F0.7°C 29.0°F-1.7°C 84% 5.1 mph SE8.2 kmh SE 9.2 mph14.8 kmh 30.30 in1026.1 mb 0.01 in0.3 mm 0.05 in/hr1.3 mm/hr 0.01 in0.3 mm
02:46 AM 33.1°F0.6°C 29.1°F-1.6°C 85% 4.4 mph ESE7.1 kmh ESE 11.4 mph18.3 kmh 30.30 in1026.1 mb 0.01 in0.3 mm 0.00 in/hr0.0 mm/hr 0.01 in0.3 mm
02:57 AM 32.9°F0.5°C 28.9°F-1.7°C 85% 5.6 mph ESE9.0 kmh ESE 12.1 mph19.5 kmh 30.30 in1026.1 mb 0.01 in0.3 mm 0.00 in/hr0.0 mm/hr 0.01 in0.3 mm
03:08 AM 33.1°F0.6°C 28.8°F-1.8°C 84% 4.4 mph ESE7.1 kmh ESE 9.2 mph14.8 kmh 30.29 in1025.7 mb 0.01 in0.3 mm 0.00 in/hr0.0 mm/hr 0.01 in0.3 mm
03:19 AM 32.9°F0.5°C 28.6°F-1.9°C 84% 5.4 mph E8.7 kmh E 11.4 mph18.3 kmh 30.29 in1025.7 mb 0.01 in0.3 mm 0.00 in/hr0.0 mm/hr 0.01 in0.3 mm
03:30 AM 32.9°F0.5°C 28.9°F-1.7°C 85% 6.0 mph E9.7 kmh E 13.0 mph20.9 kmh 30.28 in1025.4 mb 0.03 in0.8 mm 0.11 in/hr2.8 mm/hr 0.03 in0.8 mm
03:41 AM 32.9°F0.5°C 28.9°F-1.7°C 85% 5.6 mph E9.0 kmh E 13.6 mph21.9 kmh 30.28 in1025.4 mb 0.01 in0.3 mm 0.00 in/hr0.0 mm/hr 0.03 in0.8 mm
03:52 AM 32.7°F0.4°C 28.4°F-2.0°C 84% 7.8 mph E12.6 kmh E 16.8 mph27.0 kmh 30.28 in1025.4 mb 0.01 in0.3 mm 0.00 in/hr0.0 mm/hr 0.03 in0.8 mm
04:03 AM 32.5°F0.3°C 28.3°F-2.1°C 84% 6.6 mph E10.6 kmh E 14.5 mph23.3 kmh 30.28 in1025.4 mb 0.01 in0.3 mm 0.00 in/hr0.0 mm/hr 0.03 in0.8 mm
04:14 AM 32.5°F0.3°C 28.6°F-1.9°C 85% 5.6 mph E9.0 kmh E 13.0 mph20.9 kmh 30.28 in1025.4 mb 0.01 in0.3 mm 0.00 in/hr0.0 mm/hr 0.03 in0.8 mm
04:25 AM 32.5°F0.3°C 28.6°F-1.9°C 85% 5.7 mph E9.2 kmh E 12.1 mph19.5 kmh 30.28 in1025.4 mb 0.01 in0.3 mm 0.00 in/hr0.0 mm/hr 0.03 in0.8 mm
04:36 AM 32.4°F0.2°C 28.4°F-2.0°C 85% 4.8 mph E7.7 kmh E 10.7 mph17.2 kmh 30.28 in1025.4 mb 0.00 in0.0 mm 0.00 in/hr0.0 mm/hr 0.03 in0.8 mm
04:47 AM 32.2°F0.1°C 27.9°F-2.3°C 84% 3.7 mph E6.0 kmh E 9.2 mph14.8 kmh 30.28 in1025.4 mb 0.00 in0.0 mm 0.00 in/hr0.0 mm/hr 0.03 in0.8 mm
04:58 AM 32.0°F0.0°C 28.0°F-2.2°C 85% 1.2 mph E1.9 kmh E 6.0 mph9.7 kmh 30.27 in1025.1 mb 0.00 in0.0 mm 0.00 in/hr0.0 mm/hr 0.03 in0.8 mm
05:09 AM 32.2°F0.1°C 28.2°F-2.1°C 85% Calm Calm -- 30.27 in1025.1 mb 0.00 in0.0 mm 0.00 in/hr0.0 mm/hr 0.03 in0.8 mm
05:20 AM 32.2°F0.1°C 28.2°F-2.1°C 85% Calm Calm -- 30.27 in1025.1 mb 0.00 in0.0 mm 0.00 in/hr0.0 mm/hr 0.03 in0.8 mm
05:31 AM 32.0°F0.0°C 28.0°F-2.2°C 85% Calm Calm -- 30.27 in1025.1 mb 0.00 in0.0 mm 0.00 in/hr0.0 mm/hr 0.03 in0.8 mm
05:42 AM 32.0°F0.0°C 28.0°F-2.2°C 85% Calm Calm -- 30.27 in1025.1 mb 0.00 in0.0 mm 0.00 in/hr0.0 mm/hr 0.03 in0.8 mm
05:53 AM 32.0°F0.0°C 27.7°F-2.4°C 84% Calm Calm -- 30.27 in1025.1 mb 0.00 in0.0 mm 0.00 in/hr0.0 mm/hr 0.03 in0.8 mm
06:04 AM 31.8°F-0.1°C 27.8°F-2.3°C 85% Calm Calm -- 30.26 in1024.7 mb 0.00 in0.0 mm 0.00 in/hr0.0 mm/hr 0.03 in0.8 mm
06:15 AM 31.8°F-0.1°C 27.8°F-2.3°C 85% Calm Calm -- 30.26 in1024.7 mb 0.00 in0.0 mm 0.00 in/hr0.0 mm/hr 0.03 in0.8 mm
06:26 AM 31.8°F-0.1°C 27.6°F-2.4°C 84% Calm Calm -- 30.26 in1024.7 mb 0.00 in0.0 mm 0.00 in/hr0.0 mm/hr 0.03 in0.8 mm
06:37 AM 31.6°F-0.2°C 27.7°F-2.4°C 85% Calm Calm -- 30.25 in1024.4 mb 0.00 in0.0 mm 0.00 in/hr0.0 mm/hr 0.03 in0.8 mm
06:48 AM 31.6°F-0.2°C 27.4°F-2.6°C 84% Calm Calm -- 30.25 in1024.4 mb 0.00 in0.0 mm 0.00 in/hr0.0 mm/hr 0.03 in0.8 mm
06:59 AM 31.3°F-0.4°C 27.0°F-2.8°C 84% Calm Calm -- 30.25 in1024.4 mb 0.00 in0.0 mm 0.00 in/hr0.0 mm/hr 0.03 in0.8 mm
07:10 AM 31.3°F-0.4°C 27.0°F-2.8°C 84% Calm Calm -- 30.25 in1024.4 mb 0.00 in0.0 mm 0.00 in/hr0.0 mm/hr 0.03 in0.8 mm
07:21 AM 31.3°F-0.4°C 27.0°F-2.8°C 84% Calm Calm -- 30.26 in1024.7 mb 0.00 in0.0 mm 0.00 in/hr0.0 mm/hr 0.03 in0.8 mm
07:32 AM 31.1°F-0.5°C 26.9°F-2.8°C 84% Calm Calm -- 30.26 in1024.7 mb 0.00 in0.0 mm 0.00 in/hr0.0 mm/hr 0.03 in0.8 mm
07:43 AM 31.1°F-0.5°C 26.9°F-2.8°C 84% Calm Calm -- 30.26 in1024.7 mb 0.00 in0.0 mm 0.00 in/hr0.0 mm/hr 0.03 in0.8 mm
07:54 AM 31.1°F-0.5°C 26.9°F-2.8°C 84% Calm Calm -- 30.26 in1024.7 mb 0.00 in0.0 mm 0.00 in/hr0.0 mm/hr 0.03 in0.8 mm
08:05 AM 30.9°F-0.6°C 27.0°F-2.8°C 85% Calm Calm -- 30.26 in1024.7 mb 0.00 in0.0 mm 0.00 in/hr0.0 mm/hr 0.03 in0.8 mm
08:16 AM 30.9°F-0.6°C 26.7°F-2.9°C 84% Calm Calm -- 30.26 in1024.7 mb 0.00 in0.0 mm 0.00 in/hr0.0 mm/hr 0.03 in0.8 mm
08:27 AM 30.7°F-0.7°C 26.5°F-3.1°C 84% Calm Calm -- 30.26 in1024.7 mb 0.00 in0.0 mm 0.00 in/hr0.0 mm/hr 0.03 in0.8 mm
08:38 AM 30.7°F-0.7°C 26.8°F-2.9°C 85% Calm Calm -- 30.26 in1024.7 mb 0.00 in0.0 mm 0.00 in/hr0.0 mm/hr 0.03 in0.8 mm
08:49 AM 30.7°F-0.7°C 26.8°F-2.9°C 85% Calm Calm -- 30.26 in1024.7 mb 0.00 in0.0 mm 0.00 in/hr0.0 mm/hr 0.03 in0.8 mm
09:00 AM 30.9°F-0.6°C 27.0°F-2.8°C 85% Calm Calm -- 30.26 in1024.7 mb 0.00 in0.0 mm 0.00 in/hr0.0 mm/hr 0.03 in0.8 mm
09:11 AM 31.1°F-0.5°C 26.9°F-2.8°C 84% Calm Calm -- 30.27 in1025.1 mb 0.00 in0.0 mm 0.00 in/hr0.0 mm/hr 0.03 in0.8 mm
09:22 AM 31.1°F-0.5°C 26.9°F-2.8°C 84% Calm Calm -- 30.27 in1025.1 mb 0.00 in0.0 mm 0.00 in/hr0.0 mm/hr 0.03 in0.8 mm
09:33 AM 31.1°F-0.5°C 26.9°F-2.8°C 84% Calm Calm -- 30.27 in1025.1 mb 0.00 in0.0 mm 0.00 in/hr0.0 mm/hr 0.03 in0.8 mm
09:44 AM 31.1°F-0.5°C 26.9°F-2.8°C 84% Calm Calm -- 30.28 in1025.4 mb 0.00 in0.0 mm 0.00 in/hr0.0 mm/hr 0.03 in0.8 mm
09:55 AM 31.1°F-0.5°C 27.1°F-2.7°C 85% Calm Calm -- 30.29 in1025.7 mb 0.00 in0.0 mm 0.00 in/hr0.0 mm/hr 0.03 in0.8 mm
10:06 AM 31.3°F-0.4°C 27.3°F-2.6°C 85% Calm Calm -- 30.28 in1025.4 mb 0.00 in0.0 mm 0.00 in/hr0.0 mm/hr 0.03 in0.8 mm
10:17 AM 31.5°F-0.3°C 27.5°F-2.5°C 85% Calm Calm -- 30.28 in1025.4 mb 0.00 in0.0 mm 0.00 in/hr0.0 mm/hr 0.03 in0.8 mm
10:28 AM 31.5°F-0.3°C 27.5°F-2.5°C 85% Calm Calm -- 30.29 in1025.7 mb 0.00 in0.0 mm 0.00 in/hr0.0 mm/hr 0.03 in0.8 mm
10:39 AM 31.5°F-0.3°C 27.5°F-2.5°C 85% Calm Calm -- 30.29 in1025.7 mb 0.00 in0.0 mm 0.00 in/hr0.0 mm/hr 0.03 in0.8 mm
10:50 AM 31.5°F-0.3°C 27.5°F-2.5°C 85% Calm Calm -- 30.29 in1025.7 mb 0.00 in0.0 mm 0.00 in/hr0.0 mm/hr 0.03 in0.8 mm
11:01 AM 31.5°F-0.3°C 27.5°F-2.5°C 85% Calm Calm -- 30.30 in1026.1 mb 0.00 in0.0 mm 0.00 in/hr0.0 mm/hr 0.03 in0.8 mm
11:12 AM 31.5°F-0.3°C 27.5°F-2.5°C 85% Calm Calm -- 30.30 in1026.1 mb 0.00 in0.0 mm 0.00 in/hr0.0 mm/hr 0.03 in0.8 mm
11:23 AM 31.8°F-0.1°C 27.8°F-2.3°C 85% Calm Calm -- 30.30 in1026.1 mb 0.01 in0.3 mm 0.05 in/hr1.3 mm/hr 0.04 in1.0 mm
11:34 AM 31.8°F-0.1°C 27.8°F-2.3°C 85% Calm Calm -- 30.30 in1026.1 mb 0.01 in0.3 mm 0.00 in/hr0.0 mm/hr 0.04 in1.0 mm
11:45 AM 32.0°F0.0°C 28.0°F-2.2°C 85% Calm Calm -- 30.30 in1026.1 mb 0.01 in0.3 mm 0.00 in/hr0.0 mm/hr 0.04 in1.0 mm
11:56 AM 33.1°F0.6°C 29.4°F-1.4°C 86% 1.3 mph NNE2.1 kmh NNE 11.4 mph18.3 kmh 30.30 in1026.1 mb 0.03 in0.8 mm 0.11 in/hr2.8 mm/hr 0.06 in1.5 mm
12:07 PM 33.4°F0.8°C 29.1°F-1.6°C 84% 7.7 mph NNE12.4 kmh NNE 13.6 mph21.9 kmh 30.31 in1026.4 mb 0.03 in0.8 mm 0.00 in/hr0.0 mm/hr 0.06 in1.5 mm
12:18 PM 33.6°F0.9°C 29.6°F-1.3°C 85% 9.6 mph NNE15.4 kmh NNE 15.9 mph25.6 kmh 30.30 in1026.1 mb 0.03 in0.8 mm 0.00 in/hr0.0 mm/hr 0.06 in1.5 mm
12:29 PM 33.4°F0.8°C 29.1°F-1.6°C 84% 12.2 mph NE19.6 kmh NE 20.6 mph33.2 kmh 30.30 in1026.1 mb 0.03 in0.8 mm 0.00 in/hr0.0 mm/hr 0.07 in1.8 mm
12:40 PM 33.6°F0.9°C 29.6°F-1.3°C 85% 11.4 mph NE18.3 kmh NE 21.3 mph34.3 kmh 30.30 in1026.1 mb 0.03 in0.8 mm 0.00 in/hr0.0 mm/hr 0.07 in1.8 mm
12:51 PM 33.4°F0.8°C 29.1°F-1.6°C 84% 13.1 mph NE21.1 kmh NE 25.1 mph40.4 kmh 30.30 in1026.1 mb 0.03 in0.8 mm 0.00 in/hr0.0 mm/hr 0.07 in1.8 mm
01:02 PM 33.8°F1.0°C 29.8°F-1.2°C 85% 18.4 mph NNE29.6 kmh NNE 29.8 mph48.0 kmh 30.29 in1025.7 mb 0.03 in0.8 mm 0.00 in/hr0.0 mm/hr 0.08 in2.0 mm
01:13 PM 34.0°F1.1°C 29.7°F-1.3°C 84% 16.2 mph NNE26.1 kmh NNE 27.3 mph43.9 kmh 30.30 in1026.1 mb 0.03 in0.8 mm 0.00 in/hr0.0 mm/hr 0.08 in2.0 mm
01:24 PM 34.3°F1.3°C 29.7°F-1.3°C 83% 13.8 mph NE22.2 kmh NE 23.5 mph37.8 kmh 30.30 in1026.1 mb 0.03 in0.8 mm 0.00 in/hr0.0 mm/hr 0.10 in2.5 mm
01:35 PM 34.5°F1.4°C 30.2°F-1.0°C 84% 15.0 mph N24.1 kmh N 23.5 mph37.8 kmh 30.30 in1026.1 mb 0.03 in0.8 mm 0.00 in/hr0.0 mm/hr 0.10 in2.5 mm
01:46 PM 34.7°F1.5°C 30.4°F-0.9°C 84% 13.8 mph NNE22.2 kmh NNE 26.6 mph42.8 kmh 30.30 in1026.1 mb 0.03 in0.8 mm 0.00 in/hr0.0 mm/hr 0.10 in2.5 mm
01:57 PM 35.1°F1.7°C 30.4°F-0.9°C 83% 13.5 mph N21.7 kmh N 26.6 mph42.8 kmh 30.30 in1026.1 mb 0.01 in0.3 mm 0.00 in/hr0.0 mm/hr 0.10 in2.5 mm
02:08 PM 34.9°F1.6°C 30.2°F-1.0°C 83% 16.0 mph NNE25.7 kmh NNE 28.9 mph46.5 kmh 30.30 in1026.1 mb 0.01 in0.3 mm 0.00 in/hr0.0 mm/hr 0.10 in2.5 mm
02:19 PM 34.9°F1.6°C 30.2°F-1.0°C 83% 16.4 mph NNE26.4 kmh NNE 26.6 mph42.8 kmh 30.29 in1025.7 mb 0.00 in0.0 mm 0.00 in/hr0.0 mm/hr 0.10 in2.5 mm
02:30 PM 35.6°F2.0°C 31.3°F-0.4°C 84% 14.1 mph NNE22.7 kmh NNE 25.9 mph41.7 kmh 30.29 in1025.7 mb 0.00 in0.0 mm 0.00 in/hr0.0 mm/hr 0.10 in2.5 mm
02:41 PM 35.1°F1.7°C 30.1°F-1.1°C 82% 16.3 mph N26.2 kmh N 25.9 mph41.7 kmh 30.30 in1026.1 mb 0.00 in0.0 mm 0.00 in/hr0.0 mm/hr 0.10 in2.5 mm
02:52 PM 34.7°F1.5°C 30.1°F-1.1°C 83% 14.3 mph N23.0 kmh N 25.9 mph41.7 kmh 30.29 in1025.7 mb 0.00 in0.0 mm 0.00 in/hr0.0 mm/hr 0.10 in2.5 mm
03:03 PM 35.1°F1.7°C 30.4°F-0.9°C 83% 13.3 mph N21.4 kmh N 26.6 mph42.8 kmh 30.28 in1025.4 mb 0.00 in0.0 mm 0.00 in/hr0.0 mm/hr 0.10 in2.5 mm
03:14 PM 34.9°F1.6°C 30.2°F-1.0°C 83% 13.4 mph NNE21.6 kmh NNE 23.5 mph37.8 kmh 30.28 in1025.4 mb 0.00 in0.0 mm 0.00 in/hr0.0 mm/hr 0.10 in2.5 mm
03:25 PM 35.2°F1.8°C 30.3°F-0.9°C 82% 14.3 mph NE23.0 kmh NE 28.2 mph45.4 kmh 30.28 in1025.4 mb 0.00 in0.0 mm 0.00 in/hr0.0 mm/hr 0.10 in2.5 mm
03:36 PM 35.4°F1.9°C 30.2°F-1.0°C 81% 16.7 mph NE26.9 kmh NE 31.1 mph50.1 kmh 30.27 in1025.1 mb 0.00 in0.0 mm 0.00 in/hr0.0 mm/hr 0.10 in2.5 mm
03:46 PM 35.6°F2.0°C 30.3°F-0.9°C 81% 20.0 mph NE32.2 kmh NE 32.7 mph52.6 kmh 30.27 in1025.1 mb 0.00 in0.0 mm 0.00 in/hr0.0 mm/hr 0.10 in2.5 mm
03:57 PM 35.6°F2.0°C 30.3°F-0.9°C 81% 24.1 mph NNE38.8 kmh NNE 36.5 mph58.7 kmh 30.27 in1025.1 mb 0.00 in0.0 mm 0.00 in/hr0.0 mm/hr 0.10 in2.5 mm
04:08 PM 35.2°F1.8°C 30.3°F-0.9°C 82% 16.9 mph NNE27.2 kmh NNE 28.2 mph45.4 kmh 30.27 in1025.1 mb 0.00 in0.0 mm 0.00 in/hr0.0 mm/hr 0.10 in2.5 mm
04:19 PM 35.1°F1.7°C 30.4°F-0.9°C 83% 19.1 mph NE30.7 kmh NE 32.7 mph52.6 kmh 30.27 in1025.1 mb 0.00 in0.0 mm 0.00 in/hr0.0 mm/hr 0.10 in2.5 mm
04:30 PM 35.4°F1.9°C 31.1°F-0.5°C 84% 20.4 mph NE32.8 kmh NE 34.2 mph55.0 kmh 30.26 in1024.7 mb 0.00 in0.0 mm 0.00 in/hr0.0 mm/hr 0.10 in2.5 mm
04:41 PM 35.4°F1.9°C 30.2°F-1.0°C 81% 18.8 mph NNE30.3 kmh NNE 32.0 mph51.5 kmh 30.26 in1024.7 mb 0.00 in0.0 mm 0.00 in/hr0.0 mm/hr 0.10 in2.5 mm
04:52 PM 35.1°F1.7°C 29.8°F-1.2°C 81% 19.8 mph NNE31.9 kmh NNE 37.4 mph60.2 kmh 30.26 in1024.7 mb 0.00 in0.0 mm 0.00 in/hr0.0 mm/hr 0.10 in2.5 mm
05:03 PM 35.1°F1.7°C 29.2°F-1.6°C 79% 21.8 mph NNE35.1 kmh NNE 36.5 mph58.7 kmh 30.27 in1025.1 mb 0.00 in0.0 mm 0.00 in/hr0.0 mm/hr 0.10 in2.5 mm
05:14 PM 34.9°F1.6°C 29.0°F-1.7°C 79% 18.7 mph N30.1 kmh N 33.6 mph54.1 kmh 30.26 in1024.7 mb 0.00 in0.0 mm 0.00 in/hr0.0 mm/hr 0.10 in2.5 mm
05:25 PM 34.7°F1.5°C 28.2°F-2.1°C 77% 16.9 mph N27.2 kmh N 28.9 mph46.5 kmh 30.26 in1024.7 mb 0.00 in0.0 mm 0.00 in/hr0.0 mm/hr 0.10 in2.5 mm
05:36 PM 34.5°F1.4°C 28.4°F-2.0°C 78% 17.3 mph N27.8 kmh N 32.0 mph51.5 kmh 30.26 in1024.7 mb 0.00 in0.0 mm 0.00 in/hr0.0 mm/hr 0.10 in2.5 mm
05:47 PM 34.2°F1.2°C 27.7°F-2.4°C 77% 20.2 mph N32.5 kmh N 32.0 mph51.5 kmh 30.26 in1024.7 mb 0.00 in0.0 mm 0.00 in/hr0.0 mm/hr 0.10 in2.5 mm
05:58 PM 34.0°F1.1°C 27.5°F-2.5°C 77% 17.9 mph N28.8 kmh N 28.9 mph46.5 kmh 30.27 in1025.1 mb 0.00 in0.0 mm 0.00 in/hr0.0 mm/hr 0.10 in2.5 mm
06:09 PM 34.0°F1.1°C 26.5°F-3.1°C 74% 17.2 mph NNE27.7 kmh NNE 32.0 mph51.5 kmh 30.27 in1025.1 mb 0.00 in0.0 mm 0.00 in/hr0.0 mm/hr 0.10 in2.5 mm
06:20 PM 33.4°F0.8°C 26.3°F-3.2°C 75% 19.3 mph NNE31.1 kmh NNE 31.1 mph50.1 kmh 30.28 in1025.4 mb 0.00 in0.0 mm 0.00 in/hr0.0 mm/hr 0.10 in2.5 mm
06:31 PM 33.1°F0.6°C 25.7°F-3.5°C 74% 18.7 mph N30.1 kmh N 35.8 mph57.6 kmh 30.28 in1025.4 mb 0.00 in0.0 mm 0.00 in/hr0.0 mm/hr 0.10 in2.5 mm
06:42 PM 32.7°F0.4°C 24.3°F-4.3°C 71% 19.9 mph N32.0 kmh N 32.7 mph52.6 kmh 30.28 in1025.4 mb 0.00 in0.0 mm 0.00 in/hr0.0 mm/hr 0.10 in2.5 mm
06:53 PM 32.7°F0.4°C 24.6°F-4.1°C 72% 26.4 mph N42.5 kmh N 41.8 mph67.3 kmh 30.27 in1025.1 mb 0.00 in0.0 mm 0.00 in/hr0.0 mm/hr 0.10 in2.5 mm
07:04 PM 32.5°F0.3°C 24.5°F-4.2°C 72% 26.7 mph NNE43.0 kmh NNE 41.2 mph66.3 kmh 30.28 in1025.4 mb 0.00 in0.0 mm 0.00 in/hr0.0 mm/hr 0.10 in2.5 mm
07:15 PM 32.2°F0.1°C 24.5°F-4.2°C 73% 25.3 mph NNE40.7 kmh NNE 39.6 mph63.7 kmh 30.28 in1025.4 mb 0.00 in0.0 mm 0.00 in/hr0.0 mm/hr 0.10 in2.5 mm
07:26 PM 31.5°F-0.3°C 23.1°F-4.9°C 71% 23.3 mph N37.5 kmh N 44.1 mph71.0 kmh 30.28 in1025.4 mb 0.00 in0.0 mm 0.00 in/hr0.0 mm/hr 0.10 in2.5 mm
07:37 PM 30.7°F-0.7°C 22.4°F-5.3°C 71% 23.3 mph N37.5 kmh N 38.7 mph62.3 kmh 30.29 in1025.7 mb 0.00 in0.0 mm 0.00 in/hr0.0 mm/hr 0.10 in2.5 mm
07:48 PM 30.4°F-0.9°C 21.7°F-5.7°C 70% 24.1 mph N38.8 kmh N 39.6 mph63.7 kmh 30.29 in1025.7 mb 0.00 in0.0 mm 0.00 in/hr0.0 mm/hr 0.10 in2.5 mm
07:59 PM 30.2°F-1.0°C 21.6°F-5.8°C 70% 23.5 mph N37.8 kmh N 37.4 mph60.2 kmh 30.29 in1025.7 mb 0.00 in0.0 mm 0.00 in/hr0.0 mm/hr 0.10 in2.5 mm
08:10 PM 29.8°F-1.2°C 21.2°F-6.0°C 70% 23.4 mph NE37.7 kmh NE 35.8 mph57.6 kmh 30.29 in1025.7 mb 0.00 in0.0 mm 0.00 in/hr0.0 mm/hr 0.10 in2.5 mm
08:21 PM 29.5°F-1.4°C 21.5°F-5.8°C 72% 20.9 mph N33.6 kmh N 34.2 mph55.0 kmh 30.29 in1025.7 mb 0.00 in0.0 mm 0.00 in/hr0.0 mm/hr 0.10 in2.5 mm
08:32 PM 29.3°F-1.5°C 21.7°F-5.7°C 73% 22.3 mph N35.9 kmh N 41.2 mph66.3 kmh 30.29 in1025.7 mb 0.00 in0.0 mm 0.00 in/hr0.0 mm/hr 0.10 in2.5 mm
08:43 PM 29.3°F-1.5°C 21.7°F-5.7°C 73% 21.0 mph N33.8 kmh N 35.8 mph57.6 kmh 30.29 in1025.7 mb 0.00 in0.0 mm 0.00 in/hr0.0 mm/hr 0.10 in2.5 mm
08:54 PM 29.5°F-1.4°C 22.5°F-5.3°C 75% 21.5 mph N34.6 kmh N 37.4 mph60.2 kmh 30.30 in1026.1 mb 0.00 in0.0 mm 0.00 in/hr0.0 mm/hr 0.10 in2.5 mm
09:05 PM 29.5°F-1.4°C 22.9°F-5.1°C 76% 21.2 mph N34.1 kmh N 30.4 mph48.9 kmh 30.30 in1026.1 mb 0.00 in0.0 mm 0.00 in/hr0.0 mm/hr 0.10 in2.5 mm
09:16 PM 29.7°F-1.3°C 22.4°F-5.3°C 74% 23.0 mph N37.0 kmh N 32.7 mph52.6 kmh 30.29 in1025.7 mb 0.00 in0.0 mm 0.00 in/hr0.0 mm/hr 0.10 in2.5 mm
09:27 PM 29.7°F-1.3°C 23.0°F-5.0°C 76% 22.2 mph N35.7 kmh N 32.0 mph51.5 kmh 30.29 in1025.7 mb 0.00 in0.0 mm 0.00 in/hr0.0 mm/hr 0.10 in2.5 mm
09:38 PM 29.7°F-1.3°C 22.4°F-5.3°C 74% 25.5 mph N41.0 kmh N 36.5 mph58.7 kmh 30.29 in1025.7 mb 0.00 in0.0 mm 0.00 in/hr0.0 mm/hr 0.10 in2.5 mm
09:49 PM 29.3°F-1.5°C 22.4°F-5.3°C 75% 23.8 mph N38.3 kmh N 32.7 mph52.6 kmh 30.29 in1025.7 mb 0.00 in0.0 mm 0.00 in/hr0.0 mm/hr 0.10 in2.5 mm
10:00 PM 29.5°F-1.4°C 21.5°F-5.8°C 72% 22.9 mph N36.9 kmh N 36.5 mph58.7 kmh 30.29 in1025.7 mb 0.00 in0.0 mm 0.00 in/hr0.0 mm/hr 0.10 in2.5 mm
10:11 PM 29.1°F-1.6°C 21.5°F-5.8°C 73% 23.7 mph N38.1 kmh N 34.9 mph56.2 kmh 30.29 in1025.7 mb 0.00 in0.0 mm 0.00 in/hr0.0 mm/hr 0.10 in2.5 mm
10:22 PM 29.1°F-1.6°C 21.5°F-5.8°C 73% 23.0 mph N37.0 kmh N 34.9 mph56.2 kmh 30.29 in1025.7 mb 0.00 in0.0 mm 0.00 in/hr0.0 mm/hr 0.10 in2.5 mm
10:33 PM 28.8°F-1.8°C 21.5°F-5.8°C 74% 18.6 mph N29.9 kmh N 38.7 mph62.3 kmh 30.30 in1026.1 mb 0.00 in0.0 mm 0.00 in/hr0.0 mm/hr 0.10 in2.5 mm
10:44 PM 28.6°F-1.9°C 21.3°F-5.9°C 74% 20.6 mph N33.2 kmh N 34.9 mph56.2 kmh 30.29 in1025.7 mb 0.00 in0.0 mm 0.00 in/hr0.0 mm/hr 0.10 in2.5 mm
10:55 PM 28.6°F-1.9°C 20.7°F-6.3°C 72% 20.4 mph N32.8 kmh N 34.9 mph56.2 kmh 30.29 in1025.7 mb 0.00 in0.0 mm 0.00 in/hr0.0 mm/hr 0.10 in2.5 mm
11:06 PM 28.6°F-1.9°C 20.7°F-6.3°C 72% 18.4 mph N29.6 kmh N 32.7 mph52.6 kmh 30.29 in1025.7 mb 0.00 in0.0 mm 0.00 in/hr0.0 mm/hr 0.10 in2.5 mm
11:17 PM 28.4°F-2.0°C 19.8°F-6.8°C 70% 20.8 mph NNE33.5 kmh NNE 37.4 mph60.2 kmh 30.29 in1025.7 mb 0.00 in0.0 mm 0.00 in/hr0.0 mm/hr 0.10 in2.5 mm
11:28 PM 28.4°F-2.0°C 19.8°F-6.8°C 70% 21.5 mph N34.6 kmh N 35.8 mph57.6 kmh 30.29 in1025.7 mb 0.00 in0.0 mm 0.00 in/hr0.0 mm/hr 0.10 in2.5 mm
11:39 PM 28.0°F-2.2°C 19.5°F-6.9°C 70% 19.5 mph N31.4 kmh N 36.5 mph58.7 kmh 30.29 in1025.7 mb 0.00 in0.0 mm 0.00 in/hr0.0 mm/hr 0.10 in2.5 mm
11:50 PM 28.0°F-2.2°C 19.1°F-7.2°C 69% 19.3 mph N31.1 kmh N 34.9 mph56.2 kmh 30.29 in1025.7 mb 0.00 in0.0 mm 0.00 in/hr0.0 mm/hr 0.10 in2.5 mm